Flight Track Log - Related Links

Times and Time Zones

All times are in EDT time to prevent confusion due to time zone crossing. See the KLM282 flight status page for this flight to view local times or setup timezone preferences in your user account.

Time Position Orientation Groundspeed Altitude Reporting Facility
EDT Latitude Longitude Course Direction KTS MPH feet Rate Location/Type
Wed 05:37:28 PM 37.6300 -122.4010 296° West 167 192 600  Level FlightAware ADS-B
Wed 05:37:43 PM 37.6400 -122.4080 331° Northwest 174 200 1,200 2,400 Climbing FlightAware ADS-B
Wed 05:37:53 PM 37.6490 -122.4080 360° North 187 215 1,600 1,680 Climbing FlightAware ADS-B
Wed 05:38:08 PM 37.6610 -122.3990 31° Northeast 212 244 1,900 1,800 Climbing FlightAware ADS-B
Wed 05:38:23 PM 37.6690 -122.3830 58° Northeast 216 249 2,500 2,000 Climbing FlightAware ADS-B
Wed 05:38:53 PM 37.6830 -122.3520 60° Northeast 219 252 3,400 1,467 Climbing FlightAware ADS-B
Wed 05:39:08 PM 37.6920 -122.3330 59° Northeast 236 272 3,600 1,050 Climbing FlightAware ADS-B
Wed 05:39:33 PM 37.7060 -122.3040 59° Northeast 257 296 4,100 1,200 Climbing FlightAware ADS-B
Wed 05:40:03 PM 37.7270 -122.2670 54° Northeast 275 316 4,700 1,733 Climbing FlightAware ADS-B
Wed 05:40:18 PM 37.7470 -122.2550 25° Northeast 274 315 5,400 2,550 Climbing FlightAware ADS-B
Wed 05:40:43 PM 37.7760 -122.2420 20° North 280 322 6,400 2,400 Climbing FlightAware ADS-B
Wed 05:40:58 PM 37.7950 -122.2310 25° Northeast 286 329 7,000 2,000 Climbing FlightAware ADS-B
Wed 05:41:28 PM 37.8290 -122.2000 36° Northeast 310 357 7,900 2,182 Climbing FlightAware ADS-B
Wed 05:41:53 PM 37.8560 -122.1730 38° Northeast 312 359 9,000 2,215 Climbing FlightAware ADS-B
Wed 05:42:33 PM 37.9020 -122.1270 38° Northeast 333 383 10,300 1,800 Climbing FlightAware ADS-B
Wed 05:43:03 PM 37.9400 -122.0870 40° Northeast 355 409 11,100 1,440 Climbing FlightAware ADS-B
Wed 05:43:48 PM 38.0010 -122.0220 40° Northeast 396 456 12,100 1,412 Climbing FlightAware ADS-B
Wed 05:44:28 PM 38.0580 -121.9640 39° Northeast 422 486 13,100 1,650 Climbing FlightAware ADS-B
Wed 05:45:08 PM 38.1210 -121.8960 40° Northeast 445 512 14,300 1,976 Climbing FlightAware ADS-B
Wed 05:45:53 PM 38.1920 -121.8210 40° Northeast 462 532 15,900 2,188 Climbing FlightAware ADS-B
Wed 05:46:33 PM 38.2580 -121.7500 40° Northeast 475 547 17,400 2,259 Climbing FlightAware ADS-B
Wed 05:47:18 PM 38.3390 -121.6650 39° Northeast 488 562 19,100 2,188 Climbing FlightAware ADS-B
Wed 05:47:58 PM 38.4100 -121.5880 40° Northeast 497 572 20,500 2,100 Climbing FlightAware ADS-B
Wed 05:48:38 PM 38.4850 -121.5220 35° Northeast 502 578 21,900 1,950 Climbing FlightAware ADS-B
Wed 05:49:18 PM 38.5620 -121.4590 33° Northeast 511 588 23,100 1,694 Climbing FlightAware ADS-B
Wed 05:50:03 PM 38.6530 -121.3840 33° Northeast 524 603 24,300 1,533 Climbing FlightAware ADS-B
Wed 05:50:48 PM 38.7450 -121.3070 33° Northeast 536 617 25,400 1,553 Climbing FlightAware ADS-B
Wed 05:51:28 PM 38.8290 -121.2370 33° Northeast 546 628 26,500 1,500 Climbing FlightAware ADS-B
Wed 05:52:08 PM 38.9150 -121.1650 33° Northeast 553 636 27,400 1,835 Climbing FlightAware ADS-B
Wed 05:52:53 PM 39.0120 -121.0820 34° Northeast 544 626 29,100 2,259 Climbing FlightAware ADS-B
Wed 05:53:33 PM 39.0950 -121.0120 33° Northeast 536 617 30,600 2,025 Climbing FlightAware ADS-B
Wed 05:54:13 PM 39.1790 -120.9420 33° Northeast 531 611 31,800 1,650 Climbing FlightAware ADS-B
Wed 05:54:53 PM 39.2600 -120.8720 34° Northeast 526 605 32,800 847 Climbing FlightAware ADS-B
Wed 05:55:38 PM 39.3490 -120.7960 33° Northeast 526 605 33,000 141 Climbing FlightAware ADS-B
Wed 05:56:18 PM 39.4310 -120.7260 33° Northeast 525 604 33,000  Level FlightAware ADS-B
Wed 05:56:58 PM 39.5080 -120.6600 33° Northeast 522 601 33,000  Level FlightAware ADS-B
Wed 05:57:58 PM 39.6320 -120.5530 34° Northeast 522 601 33,000  Level FlightAware ADS-B
Wed 05:58:38 PM 39.7120 -120.4830 34° Northeast 522 601 33,000  Level FlightAware ADS-B
Wed 05:59:18 PM 39.7920 -120.4140 34° Northeast 521 600 33,000  Level FlightAware ADS-B
Wed 06:00:18 PM 39.9120 -120.3080 34° Northeast 523 602 33,000  Level FlightAware ADS-B
Wed 06:00:58 PM 39.9880 -120.2440 33° Northeast 523 602 33,000  Level FlightAware ADS-B
Wed 06:01:53 PM 40.0880 -120.1560 34° Northeast 527 606 33,000  Level FlightAware ADS-B
Wed 06:02:38 PM 40.1930 -120.0650 33° Northeast 528 608 33,000  Level FlightAware ADS-B
Wed 06:03:08 PM 40.2550 -120.0100 34° Northeast 527 606 33,000  Level FlightAware ADS-B
Wed 06:04:03 PM 40.3620 -119.9160 34° Northeast 527 606 33,000  Level FlightAware ADS-B
Wed 06:04:43 PM 40.4440 -119.8440 34° Northeast 529 609 33,000  Level FlightAware ADS-B
Wed 06:05:28 PM 40.5340 -119.7650 34° Northeast 532 612 33,000  Level FlightAware ADS-B
Wed 06:06:08 PM 40.6200 -119.6890 34° Northeast 534 615 33,000  Level FlightAware ADS-B
Wed 06:06:48 PM 40.7030 -119.6140 34° Northeast 536 617 33,000  Level FlightAware ADS-B
Wed 06:07:28 PM 40.7860 -119.5400 34° Northeast 538 619 33,000  Level FlightAware ADS-B
Wed 06:08:13 PM 40.8670 -119.4680 34° Northeast 536 617 33,000  Level FlightAware ADS-B
Wed 06:08:53 PM 40.9570 -119.3870 34° Northeast 536 617 33,000  Level FlightAware ADS-B
Wed 06:09:33 PM 41.0400 -119.3110 35° Northeast 537 618 33,000  Level FlightAware ADS-B
Wed 06:10:18 PM 41.1280 -119.2320 34° Northeast 538 619 33,000  Level FlightAware ADS-B
Wed 06:10:58 PM 41.2150 -119.1530 34° Northeast 541 623 33,000  Level FlightAware ADS-B
Wed 06:11:43 PM 41.2930 -119.0830 34° Northeast 542 624 33,000  Level FlightAware ADS-B
Wed 06:12:23 PM 41.3640 -119.0190 34° Northeast 542 624 33,000  Level FlightAware ADS-B
Wed 06:13:03 PM 41.4690 -118.9210 35° Northeast 543 625 33,000  Level FlightAware ADS-B
Wed 06:13:43 PM 41.5430 -118.8540 34° Northeast 544 626 33,000  Level FlightAware ADS-B
Wed 06:14:28 PM 41.6360 -118.7670 35° Northeast 545 627 33,000  Level FlightAware ADS-B
Wed 06:15:08 PM 41.7070 -118.7010 35° Northeast 545 627 33,000  Level FlightAware ADS-B
Wed 06:15:48 PM 41.7770 -118.6350 35° Northeast 545 627 33,000  Level FlightAware ADS-B
Wed 06:16:38 PM 41.8650 -118.5530 35° Northeast 545 627 33,000  Level FlightAware ADS-B
Wed 06:17:18 PM 41.9350 -118.4870 35° Northeast 545 627 33,000  Level FlightAware ADS-B
Wed 06:17:58 PM 42.0050 -118.4200 35° Northeast 545 627 33,000  Level FlightAware ADS-B
Wed 06:18:38 PM 42.0750 -118.3540 35° Northeast 545 627 33,000  Level FlightAware ADS-B
Wed 06:19:18 PM 42.1460 -118.2880 35° Northeast 545 627 33,000  Level FlightAware ADS-B
Wed 06:19:58 PM 42.2160 -118.2220 35° Northeast 545 627 33,000  Level FlightAware ADS-B
Wed 06:20:48 PM 42.3030 -118.1380 36° Northeast 545 627 33,000  Level FlightAware ADS-B
Wed 06:21:28 PM 42.3740 -118.0720 34° Northeast 545 627 33,000  Level FlightAware ADS-B
Wed 06:22:08 PM 42.4440 -118.0050 35° Northeast 545 627 33,000  Level FlightAware ADS-B
Wed 06:22:48 PM 42.5140 -117.9390 35° Northeast 545 627 33,000  Level FlightAware ADS-B
Wed 06:23:28 PM 42.5840 -117.8720 35° Northeast 545 627 33,000  Level FlightAware ADS-B
Wed 06:24:13 PM 42.8125 -117.5367 35° Northeast 544 626 33,000  Level Salt Lake Center
Wed 06:25:15 PM 42.9119 -117.3950 46° Northeast 543 625 33,000  Level Salt Lake Center
Wed 06:26:17 PM 43.0253 -117.2250 48° Northeast 541 623 33,000  Level Salt Lake Center
Wed 06:27:18 PM 43.1222 -117.0783 48° Northeast 542 624 33,000  Level Salt Lake Center
Wed 06:28:20 PM 43.2369 -116.9067 47° Northeast 545 627 33,000  Level Salt Lake Center
Wed 06:29:22 PM 43.3347 -116.7597 48° Northeast 546 628 33,000  Level Salt Lake Center
Wed 06:30:24 PM 43.4311 -116.6136 48° Northeast 540 621 33,000  Level Salt Lake Center
Wed 06:31:26 PM 43.5444 -116.4414 48° Northeast 543 625 33,000  Level Salt Lake Center
Wed 06:32:27 PM 43.6419 -116.2928 48° Northeast 547 629 33,000  Level Salt Lake Center
Wed 06:33:29 PM 43.7544 -116.1175 48° Northeast 547 629 33,000  Level Salt Lake Center
Wed 06:34:31 PM 43.8517 -115.9683 48° Northeast 548 631 33,000  Level Salt Lake Center
Wed 06:35:32 PM 43.9653 -115.7919 48° Northeast 552 635 33,000  Level Salt Lake Center
Wed 06:36:34 PM 44.0608 -115.6386 49° Northeast 552 635 33,000  Level Salt Lake Center
Wed 06:37:36 PM 44.1739 -115.4611 48° Northeast 553 636 33,000  Level Salt Lake Center
Wed 06:38:38 PM 44.2706 -115.3081 49° Northeast 553 636 33,000  Level Salt Lake Center
Wed 06:39:39 PM 44.3831 -115.1283 49° Northeast 553 636 33,000  Level Salt Lake Center
Wed 06:40:41 PM 44.4797 -114.9736 49° Northeast 553 636 33,000  Level Salt Lake Center
Wed 06:41:43 PM 44.5761 -114.8161 49° Northeast 556 640 33,000  Level Salt Lake Center
Wed 06:42:45 PM 44.6883 -114.6350 49° Northeast 553 636 33,000  Level Salt Lake Center
Wed 06:43:46 PM 44.7850 -114.4775 49° Northeast 555 639 33,000  Level Salt Lake Center
Wed 06:44:48 PM 44.8964 -114.2939 49° Northeast 554 638 33,000  Level Salt Lake Center
Wed 06:45:50 PM 44.9919 -114.1344 50° Northeast 555 639 33,000  Level Salt Lake Center
Wed 06:46:52 PM 45.1111 -113.9583 46° Northeast 556 640 33,000 194 Level Salt Lake Center
Wed 06:47:54 PM 45.2328 -113.8125 40° Northeast 551 634 33,400 829 Climbing Salt Lake Center
Wed 06:48:55 PM 45.3531 -113.6644 41° Northeast 555 639 34,700 780 Climbing Salt Lake Center
Wed 06:49:57 PM 45.4508 -113.5400 42° Northeast 553 636 35,000 145 Climbing Salt Lake Center
Wed 06:50:59 PM 45.5867 -113.3614 43° Northeast 553 636 35,000  Level Salt Lake Center
Wed 06:52:00 PM 45.7022 -113.2108 42° Northeast 558 642 35,000  Level Salt Lake Center
Wed 06:53:02 PM 45.8158 -113.0614 42° Northeast 554 638 35,000  Level Salt Lake Center
Wed 06:54:04 PM 45.9303 -112.9114 42° Northeast 555 639 35,000  Level Salt Lake Center
Wed 06:55:05 PM 46.0456 -112.7606 42° Northeast 557 641 35,000  Level Salt Lake Center
Wed 06:56:07 PM 46.1600 -112.6064 43° Northeast 560 644 35,000  Level Salt Lake Center
Wed 06:57:09 PM 46.2733 -112.4539 43° Northeast 556 640 35,000  Level Salt Lake Center
Wed 06:58:10 PM 46.3878 -112.3011 43° Northeast 557 641 35,000  Level Salt Lake Center
Wed 06:59:12 PM 46.5039 -112.1439 43° Northeast 561 646 35,000  Level Salt Lake Center
Wed 07:00:14 PM 46.6142 -111.9900 44° Northeast 556 640 35,000  Level Salt Lake Center
Wed 07:01:15 PM 46.7486 -111.8083 43° Northeast 553 636 35,000  Level Salt Lake Center
Wed 07:02:17 PM 46.8606 -111.6544 43° Northeast 554 638 35,000  Level Salt Lake Center
Wed 07:03:19 PM 46.9711 -111.5011 43° Northeast 553 636 35,000  Level Salt Lake Center
Wed 07:04:20 PM 47.0803 -111.3464 44° Northeast 551 634 35,000  Level Salt Lake Center
Wed 07:05:22 PM 47.1908 -111.1914 44° Northeast 555 639 35,000  Level Salt Lake Center
Wed 07:06:24 PM 47.3000 -111.0353 44° Northeast 556 640 35,000  Level Salt Lake Center
Wed 07:07:26 PM 47.4328 -110.8475 44° Northeast 560 644 35,000  Level Salt Lake Center
Wed 07:08:27 PM 47.5428 -110.6894 44° Northeast 560 644 35,000  Level Salt Lake Center
Wed 07:09:29 PM 47.6536 -110.5314 44° Northeast 559 643 35,000  Level Salt Lake Center
Wed 07:10:31 PM 47.7631 -110.3708 45° Northeast 559 643 35,000  Level Salt Lake Center
Wed 07:11:33 PM 47.8736 -110.2106 44° Northeast 559 643 35,000  Level Salt Lake Center
Wed 07:12:34 PM 48.0056 -110.0153 45° Northeast 559 643 35,000  Level Salt Lake Center
Wed 07:13:36 PM 48.1167 -109.8519 44° Northeast 561 646 35,000  Level Salt Lake Center
Wed 07:14:38 PM 48.2267 -109.6889 45° Northeast 559 643 35,000  Level Salt Lake Center
Wed 07:15:40 PM 48.3361 -109.5225 45° Northeast 561 646 35,000  Level Salt Lake Center
Wed 07:16:41 PM 48.4464 -109.3567 45° Northeast 562 647 35,000  Level Salt Lake Center
Wed 07:17:43 PM 48.5569 -109.1903 45° Northeast 562 647 35,000  Level Salt Lake Center
Wed 07:18:45 PM 48.6658 -109.0219 46° Northeast 563 648 35,000  Level Salt Lake Center
Wed 07:19:47 PM 48.7953 -108.8189 46° Northeast 562 647 35,000  Level Salt Lake Center
Wed 07:20:49 PM 48.9047 -108.6511 45° Northeast 561 646 35,000  Level Salt Lake Center
Wed 07:21:53 PM 49.0000 -108.4500 54° Northeast 550 633 35,000  Level Edmonton Center
Wed 07:27:33 PM 49.5160 -107.4370 54° Northeast 559 643 35,000  Level FlightAware ADS-B
Wed 07:28:13 PM 49.5810 -107.2990 54° Northeast 559 643 35,000  Level FlightAware ADS-B
Wed 07:28:48 PM 49.6390 -107.1770 54° Northeast 559 643 35,000  Level FlightAware ADS-B
Wed 07:29:43 PM 49.7190 -107.0030 55° Northeast 558 642 35,000  Level FlightAware ADS-B
Wed 07:30:18 PM 49.7750 -106.8830 54° Northeast 557 641 35,000  Level FlightAware ADS-B
Wed 07:31:03 PM 49.8410 -106.7400 54° Northeast 558 642 35,000  Level FlightAware ADS-B
Wed 07:31:48 PM 49.9080 -106.5970 54° Northeast 558 642 35,000  Level FlightAware ADS-B
Wed 07:32:23 PM 49.9560 -106.4930 54° Northeast 559 643 35,000  Level FlightAware ADS-B
Wed 07:33:08 PM 50.0260 -106.3390 55° Northeast 559 643 35,000  Level FlightAware ADS-B
Wed 07:33:53 PM 50.0960 -106.1850 55° Northeast 559 643 35,000  Level FlightAware ADS-B
Wed 07:34:33 PM 50.1520 -106.0600 55° Northeast 559 643 35,000  Level FlightAware ADS-B
Wed 07:35:13 PM 50.2140 -105.9240 54° Northeast 558 642 35,000  Level FlightAware ADS-B
Wed 07:35:53 PM 50.2720 -105.7930 55° Northeast 558 642 35,000  Level FlightAware ADS-B
Wed 07:36:43 PM 50.3470 -105.6240 55° Northeast 557 641 35,000  Level FlightAware ADS-B
Wed 07:37:23 PM 50.4070 -105.4890 55° Northeast 556 640 35,000  Level FlightAware ADS-B
Wed 07:38:03 PM 50.4600 -105.3690 55° Northeast 555 639 35,000  Level FlightAware ADS-B
Wed 07:38:48 PM 50.5260 -105.2160 56° Northeast 554 638 35,000  Level FlightAware ADS-B
Wed 07:39:23 PM 50.5780 -105.0970 55° Northeast 554 638 35,000  Level FlightAware ADS-B
Wed 07:40:03 PM 50.6370 -104.9600 56° Northeast 555 639 35,000  Level FlightAware ADS-B
Wed 07:40:48 PM 50.6990 -104.8160 56° Northeast 556 640 35,000  Level FlightAware ADS-B
Wed 07:41:28 PM 50.7580 -104.6690 58° Northeast 557 641 35,000  Level FlightAware ADS-B
Wed 07:42:18 PM 50.8280 -104.4950 57° Northeast 557 641 35,000  Level FlightAware ADS-B
Wed 07:42:48 PM 50.8640 -104.4090 56° Northeast 557 641 35,000  Level FlightAware ADS-B
Wed 07:43:43 PM 50.9440 -104.2100 57° Northeast 555 639 35,000  Level FlightAware ADS-B
Wed 07:44:33 PM 51.0030 -104.0630 57° Northeast 554 638 35,000  Level FlightAware ADS-B
Wed 07:45:13 PM 51.0510 -103.9460 57° Northeast 554 638 35,000  Level FlightAware ADS-B
Wed 07:45:53 PM 51.0980 -103.8300 57° Northeast 554 638 35,000  Level FlightAware ADS-B
Wed 07:46:43 PM 51.1580 -103.6840 57° Northeast 554 638 35,000  Level FlightAware ADS-B
Wed 07:47:23 PM 51.2050 -103.5680 57° Northeast 554 638 35,000  Level FlightAware ADS-B
Wed 07:48:08 PM 51.2520 -103.4510 57° Northeast 554 638 35,000  Level FlightAware ADS-B
Wed 07:48:43 PM 51.3000 -103.3340 57° Northeast 554 638 35,000  Level FlightAware ADS-B
Wed 07:49:33 PM 51.3590 -103.1880 57° Northeast 554 638 35,000  Level FlightAware ADS-B
Wed 07:50:13 PM 51.4070 -103.0710 57° Northeast 554 638 35,000  Level FlightAware ADS-B
Wed 07:50:53 PM 51.4540 -102.9540 57° Northeast 554 638 35,000  Level FlightAware ADS-B
Wed 07:51:33 PM 51.5010 -102.8360 57° Northeast 554 638 35,000  Level FlightAware ADS-B
Wed 07:52:13 PM 51.5490 -102.7190 57° Northeast 554 638 35,000  Level FlightAware ADS-B
Wed 07:53:03 PM 51.6080 -102.5720 57° Northeast 554 638 35,000  Level FlightAware ADS-B
Wed 07:53:43 PM 51.6560 -102.4540 57° Northeast 554 638 35,000  Level FlightAware ADS-B
Wed 07:53:59 PM 51.7833 -102.0333 57° Northeast 550 633 35,000  Level Winnipeg Center
Wed 07:54:59 PM 51.8500 -101.8167 63° Northeast 550 633 35,000  Level Winnipeg Center
Wed 07:55:59 PM 51.9167 -101.6000 63° Northeast 550 633 35,000  Level Winnipeg Center
Wed 07:56:59 PM 52.0000 -101.4000 56° Northeast 540 621 35,000  Level Winnipeg Center
Wed 07:57:59 PM 52.0833 -101.1833 58° Northeast 550 633 35,000  Level Winnipeg Center
Wed 07:58:59 PM 52.1500 -100.9500 65° Northeast 540 621 35,000  Level Winnipeg Center
Wed 07:59:59 PM 52.2333 -100.7333 58° Northeast 550 633 35,000  Level Winnipeg Center
Wed 08:00:59 PM 52.3000 -100.5167 63° Northeast 540 621 35,000  Level Winnipeg Center
Wed 08:01:59 PM 52.3833 -100.3167 56° Northeast 540 621 35,000  Level Winnipeg Center
Wed 08:02:59 PM 52.4500 -100.1167 61° Northeast 540 621 35,000  Level Winnipeg Center
Wed 08:03:59 PM 52.5167 -99.9167 61° Northeast 530 610 35,000  Level Winnipeg Center
Wed 08:04:59 PM 52.6167 -99.7167 50° Northeast 530 610 35,000  Level Winnipeg Center
Wed 08:05:59 PM 52.7000 -99.5000 58° Northeast 520 598 35,000  Level Winnipeg Center
Wed 08:06:59 PM 52.7667 -99.3167 59° Northeast 520 598 35,000  Level Winnipeg Center
Wed 08:07:59 PM 52.8500 -99.1000 57° Northeast 520 598 35,000  Level Winnipeg Center
Wed 08:08:59 PM 52.9500 -98.9167 48° Northeast 520 598 35,000  Level Winnipeg Center
Wed 08:09:59 PM 53.0167 -98.7167 61° Northeast 510 587 35,000  Level Winnipeg Center
Wed 08:10:59 PM 53.1000 -98.5333 53° Northeast 510 587 35,000  Level Winnipeg Center
Wed 08:11:59 PM 53.1667 -98.3000 64° Northeast 520 598 35,000  Level Winnipeg Center
Wed 08:12:25 PM 53.2000 -98.1833 64° Northeast 520 598 35,000  Level Edmonton Center
Wed 08:12:59 PM 53.2500 -98.1167 39° Northeast 510 587 35,000  Level Winnipeg Center
Wed 08:13:59 PM 53.3333 -97.9167 55° Northeast 520 598 35,000  Level Winnipeg Center
Wed 08:14:59 PM 53.4000 -97.7167 61° Northeast 520 598 35,000  Level Winnipeg Center
Wed 08:15:59 PM 53.5000 -97.5000 52° Northeast 520 598 35,000  Level Winnipeg Center
Wed 08:16:59 PM 53.5833 -97.3000 55° Northeast 510 587 35,000  Level Winnipeg Center
Wed 08:17:25 PM 53.5833 -97.1667 90° East 510 587 35,000  Level Edmonton Center
Wed 08:17:59 PM 53.6500 -97.1000 31° Northeast 510 587 35,000  Level Winnipeg Center
Wed 08:18:59 PM 53.7333 -96.9000 55° Northeast 510 587 35,000  Level Winnipeg Center
Wed 08:19:59 PM 53.8000 -96.7167 58° Northeast 510 587 35,000  Level Winnipeg Center
Wed 08:20:59 PM 53.8833 -96.5167 55° Northeast 510 587 35,000  Level Winnipeg Center
Wed 08:21:59 PM 53.9500 -96.2833 64° Northeast 500 575 35,000  Level Winnipeg Center
Wed 08:22:59 PM 54.0333 -96.0833 55° Northeast 500 575 35,000  Level Winnipeg Center
Wed 08:23:59 PM 54.1000 -95.8833 60° Northeast 510 587 35,000  Level Winnipeg Center
Wed 08:24:59 PM 54.1667 -95.6833 60° Northeast 510 587 35,000  Level Winnipeg Center
Wed 08:25:59 PM 54.2333 -95.4667 62° Northeast 510 587 35,000  Level Winnipeg Center
Wed 08:26:59 PM 54.3167 -95.2667 54° Northeast 510 587 35,000  Level Winnipeg Center
Wed 08:27:59 PM 54.3833 -95.0667 60° Northeast 510 587 35,000  Level Winnipeg Center
Wed 08:28:25 PM 54.4000 -94.9333 78° East 500 575 35,000  Level Edmonton Center
Wed 08:28:59 PM 54.4667 -94.8667 30° Northeast 500 575 35,000  Level Winnipeg Center
Wed 08:29:59 PM 54.5333 -94.6500 62° Northeast 510 587 35,000  Level Winnipeg Center
Wed 08:30:59 PM 54.6000 -94.4167 64° Northeast 500 575 35,000  Level Winnipeg Center
Wed 08:31:59 PM 54.6667 -94.2500 55° Northeast 500 575 35,000  Level Winnipeg Center
Wed 08:32:25 PM 54.6833 -94.1167 78° East 500 575 35,000  Level Edmonton Center
Wed 08:33:25 PM 54.7500 -93.8833 64° Northeast 500 575 35,000  Level Edmonton Center
Wed 08:33:59 PM 54.8167 -93.8333 23° Northeast 500 575 35,000  Level Winnipeg Center
Wed 08:34:59 PM 54.8833 -93.5833 65° Northeast 500 575 35,000  Level Winnipeg Center
Wed 08:35:25 PM 54.9000 -93.4833 74° East 490 564 35,000  Level Edmonton Center
Wed 08:36:25 PM 54.9667 -93.2667 62° Northeast 500 575 35,000  Level Edmonton Center
Wed 08:37:25 PM 55.0333 -93.0667 60° Northeast 500 575 35,000  Level Edmonton Center
Wed 08:37:59 PM 55.0833 -92.9500 53° Northeast 500 575 35,000  Level Winnipeg Center
Wed 08:38:59 PM 55.1667 -92.7500 54° Northeast 510 587 35,000  Level Winnipeg Center
Wed 08:39:59 PM 55.2167 -92.5333 68° East 500 575 35,000  Level Winnipeg Center
Wed 08:40:25 PM 55.2333 -92.4000 78° East 500 575 35,000  Level Edmonton Center
Wed 08:41:25 PM 55.3000 -92.2000 60° Northeast 500 575 35,000  Level Edmonton Center
Wed 08:42:25 PM 55.3833 -91.9833 56° Northeast 500 575 35,000  Level Edmonton Center
Wed 08:43:25 PM 55.4500 -91.7500 63° Northeast 500 575 35,000  Level Edmonton Center
Wed 08:44:25 PM 55.5000 -91.5500 66° East 490 564 35,000  Level Edmonton Center
Wed 08:45:25 PM 55.5667 -91.3167 63° Northeast 500 575 35,000  Level Edmonton Center
Wed 08:46:25 PM 55.6500 -91.1000 56° Northeast 500 575 35,000  Level Edmonton Center
Wed 08:47:25 PM 55.7000 -90.9000 66° East 500 575 35,000  Level Edmonton Center
Wed 08:48:25 PM 55.7667 -90.6500 65° Northeast 490 564 35,000  Level Edmonton Center
Wed 08:49:25 PM 55.8167 -90.4500 66° East 490 564 35,000  Level Edmonton Center
Wed 08:49:59 PM 55.8833 -90.3667 35° Northeast 500 575 35,000  Level Winnipeg Center
Wed 08:50:59 PM 55.9500 -90.1333 63° Northeast 500 575 35,000  Level Winnipeg Center
Wed 08:51:25 PM 55.9500 -90.0000 90° East 490 564 35,000  Level Edmonton Center
Wed 08:52:25 PM 56.0167 -89.7833 61° Northeast 490 564 35,000  Level Edmonton Center
Wed 08:53:25 PM 56.0833 -89.5833 59° Northeast 490 564 35,000  Level Edmonton Center
Wed 08:53:59 PM 56.1333 -89.4833 48° Northeast 480 552 35,000  Level Winnipeg Center
Wed 08:54:59 PM 56.2000 -89.2833 59° Northeast 490 564 35,000  Level Winnipeg Center
Wed 08:55:59 PM 56.2667 -89.0500 63° Northeast 490 564 35,000  Level Winnipeg Center
Wed 08:56:59 PM 56.3333 -88.8333 61° Northeast 490 564 35,000  Level Winnipeg Center
Wed 08:57:59 PM 56.4000 -88.6000 63° Northeast 490 564 35,000  Level Winnipeg Center
Wed 08:58:25 PM 56.4000 -88.5000 90° East 490 564 35,000  Level Edmonton Center
Wed 08:59:25 PM 56.4667 -88.2833 61° Northeast 500 575 35,000  Level Edmonton Center
Wed 09:00:25 PM 56.5167 -88.0333 70° East 490 564 35,000  Level Edmonton Center
Wed 09:01:25 PM 56.6000 -87.8000 57° Northeast 490 564 35,000  Level Edmonton Center
Wed 09:02:25 PM 56.6500 -87.5833 67° East 490 564 35,000  Level Edmonton Center
Wed 09:03:25 PM 56.7167 -87.3667 61° Northeast 500 575 35,000  Level Edmonton Center
Wed 09:04:25 PM 56.7833 -87.1500 61° Northeast 500 575 35,000  Level Edmonton Center
Wed 09:05:25 PM 56.8500 -86.9167 62° Northeast 480 552 35,000  Level Edmonton Center
Wed 09:06:25 PM 56.9000 -86.7000 67° East 500 575 35,000  Level Edmonton Center
Wed 09:07:25 PM 56.9667 -86.4667 62° Northeast 490 564 35,000  Level Edmonton Center
Wed 09:08:25 PM 57.0167 -86.2167 70° East 490 564 35,000  Level Edmonton Center
Wed 09:09:25 PM 57.1000 -86.0000 55° Northeast 490 564 35,000  Level Edmonton Center
Wed 09:10:25 PM 57.1500 -85.7667 68° East 480 552 35,000  Level Edmonton Center
Wed 09:11:25 PM 57.2000 -85.5500 67° East 490 564 35,000  Level Edmonton Center
Wed 09:12:25 PM 57.2667 -85.3167 62° Northeast 490 564 35,000  Level Edmonton Center
Wed 09:13:25 PM 57.3167 -85.0833 68° East 500 575 35,000  Level Edmonton Center
Wed 09:14:25 PM 57.3833 -84.8500 62° Northeast 500 575 35,000  Level Edmonton Center
Wed 09:15:25 PM 57.4333 -84.6333 67° East 500 575 35,000  Level Edmonton Center
Wed 09:16:25 PM 57.5000 -84.3667 65° Northeast 500 575 35,000  Level Edmonton Center
Wed 09:17:25 PM 57.5333 -84.1333 75° East 500 575 35,000  Level Edmonton Center
Wed 09:18:25 PM 57.6000 -83.9000 62° Northeast 490 564 35,000  Level Edmonton Center
Wed 09:19:25 PM 57.6500 -83.6667 68° East 490 564 35,000  Level Edmonton Center
Wed 09:20:25 PM 57.7167 -83.4333 62° Northeast 480 552 35,000  Level Edmonton Center
Wed 09:21:25 PM 57.7667 -83.2000 68° East 490 564 35,000  Level Edmonton Center
Wed 09:22:25 PM 57.8167 -82.9833 66° East 480 552 35,000  Level Edmonton Center
Wed 09:23:25 PM 57.8833 -82.7333 63° Northeast 490 564 35,000  Level Edmonton Center
Wed 09:24:25 PM 57.9167 -82.5000 75° East 490 564 35,000  Level Edmonton Center
Wed 09:25:25 PM 57.9833 -82.2667 62° Northeast 490 564 35,000  Level Edmonton Center
Wed 09:26:25 PM 58.0333 -82.0333 68° East 490 564 35,000  Level Edmonton Center
Wed 09:27:25 PM 58.0833 -81.7833 69° East 500 575 35,000  Level Edmonton Center
Wed 09:28:25 PM 58.1333 -81.5500 68° East 500 575 35,000  Level Edmonton Center
Wed 09:29:25 PM 58.2000 -81.3000 63° Northeast 500 575 35,000  Level Edmonton Center
Wed 09:30:25 PM 58.2333 -81.0500 76° East 500 575 35,000  Level Edmonton Center
Wed 09:31:25 PM 58.2833 -80.8000 69° East 480 552 35,000  Level Edmonton Center
Wed 09:32:25 PM 58.3333 -80.5667 68° East 500 575 35,000  Level Edmonton Center
Wed 09:33:25 PM 58.3833 -80.3167 69° East 490 564 35,000  Level Edmonton Center
Wed 09:34:25 PM 58.4500 -80.0667 63° Northeast 490 564 35,000  Level Edmonton Center
Wed 09:35:25 PM 58.4833 -79.8333 75° East 500 575 35,000  Level Edmonton Center
Wed 09:36:25 PM 58.5333 -79.5833 69° East 490 564 35,000  Level Edmonton Center
Wed 09:37:25 PM 58.5667 -79.3000 77° East 490 564 35,000  Level Edmonton Center
Wed 09:38:25 PM 58.6167 -79.1000 64° Northeast 490 564 35,000  Level Edmonton Center
Wed 09:39:25 PM 58.6667 -78.8167 71° East 500 575 35,000  Level Edmonton Center
Wed 09:40:25 PM 58.7167 -78.5667 69° East 500 575 35,000  Level Edmonton Center
Wed 09:41:25 PM 58.7667 -78.3167 69° East 500 575 35,000  Level Edmonton Center
Wed 09:42:25 PM 58.8167 -78.0667 69° East 500 575 35,000  Level Edmonton Center
Wed 09:43:25 PM 58.8667 -77.7833 71° East 500 575 35,000  Level Edmonton Center
Wed 09:44:25 PM 58.9000 -77.5333 75° East 500 575 35,000  Level Edmonton Center
Wed 09:45:25 PM 58.9500 -77.2833 69° East 500 575 35,000  Level Edmonton Center
Wed 09:46:25 PM 58.9833 -77.0333 75° East 490 564 35,000  Level Edmonton Center
Wed 09:47:25 PM 59.0333 -76.7833 69° East 500 575 35,000  Level Edmonton Center
Wed 09:48:25 PM 59.0667 -76.5333 75° East 500 575 35,000  Level Edmonton Center
Wed 09:49:25 PM 59.1167 -76.2833 69° East 490 564 35,000  Level Edmonton Center
Wed 09:50:25 PM 59.1667 -76.0167 70° East 500 575 35,000  Level Edmonton Center
Wed 09:51:25 PM 59.1833 -75.7500 83° East 490 564 35,000  Level Edmonton Center
Wed 09:52:25 PM 59.2333 -75.4833 70° East 490 564 35,000  Level Edmonton Center
Wed 09:53:25 PM 59.2667 -75.2333 75° East 490 564 35,000  Level Edmonton Center
Wed 09:54:25 PM 59.3167 -74.9667 70° East 490 564 35,000  Level Edmonton Center
Wed 09:55:25 PM 59.3500 -74.7333 74° East 490 564 35,000  Level Edmonton Center
Wed 09:56:25 PM 59.3833 -74.4667 76° East 500 575 35,000  Level Edmonton Center
Wed 09:57:25 PM 59.4167 -74.2167 75° East 490 564 35,000  Level Edmonton Center
Wed 09:58:12 PM 59.4833 -74.2167 360° North 490 564 35,000  Level Gander Center
Wed 09:59:12 PM 59.5333 -73.9667 68° East 490 564 35,000  Level Gander Center
Wed 10:00:12 PM 59.5667 -73.7167 75° East 490 564 35,000  Level Gander Center
Wed 10:01:12 PM 59.6000 -73.4667 75° East 490 564 35,000  Level Gander Center
Wed 10:02:12 PM 59.6333 -73.2000 76° East 490 564 35,000  Level Gander Center
Wed 10:03:12 PM 59.6667 -72.9500 75° East 490 564 35,000  Level Gander Center
Wed 10:04:12 PM 59.7000 -72.6667 77° East 490 564 35,000  Level Gander Center
Wed 10:05:12 PM 59.7333 -72.4167 75° East 500 575 35,000  Level Gander Center
Wed 10:06:12 PM 59.7667 -72.1167 77° East 490 564 35,000  Level Gander Center
Wed 10:07:12 PM 59.8000 -71.8667 75° East 490 564 35,000  Level Gander Center
Wed 10:08:12 PM 59.8333 -71.6000 76° East 490 564 35,000  Level Gander Center
Wed 10:09:12 PM 59.8667 -71.3500 75° East 490 564 35,000  Level Gander Center
Wed 10:10:12 PM 59.9000 -71.0833 76° East 500 575 35,000  Level Gander Center
Wed 10:11:12 PM 59.9167 -70.8333 82° East 500 575 35,000  Level Gander Center
Wed 10:12:08 PM 59.9500 -70.5667 76° East 500 575 35,000  Level Gander Center
Wed 10:13:08 PM 59.9833 -70.3167 75° East 490 564 35,000  Level Gander Center
Wed 10:14:08 PM 60.0000 -70.0500 83° East 480 552 35,000  Level Gander Center
Wed 10:15:08 PM 60.0333 -69.7500 77° East 490 564 35,000  Level Gander Center
Wed 10:16:08 PM 60.0667 -69.5000 75° East 490 564 35,000  Level Gander Center
Wed 10:17:08 PM 60.0833 -69.2333 83° East 480 552 35,000  Level Gander Center
Wed 10:18:08 PM 60.1167 -68.9667 76° East 480 552 35,000  Level Gander Center
Wed 10:19:08 PM 60.1500 -68.7167 75° East 490 564 35,000  Level Gander Center
Wed 10:20:08 PM 60.1667 -68.4500 83° East 500 575 35,000  Level Gander Center
Wed 10:21:08 PM 60.2000 -68.1833 76° East 490 564 35,000  Level Gander Center
Wed 10:22:08 PM 60.2333 -67.8833 77° East 490 564 35,000  Level Gander Center
Wed 10:23:08 PM 60.2500 -67.6500 82° East 490 564 35,000  Level Gander Center
Wed 10:24:08 PM 60.2667 -67.3500 83° East 490 564 35,000  Level Gander Center
Wed 10:25:08 PM 60.3000 -67.0833 76° East 490 564 35,000  Level Gander Center
Wed 10:26:08 PM 60.3167 -66.8333 82° East 490 564 35,000  Level Gander Center
Wed 10:27:08 PM 60.3333 -66.5667 83° East 490 564 35,000  Level Gander Center
Wed 10:28:08 PM 60.3667 -66.3000 76° East 500 575 35,000  Level Gander Center
Wed 10:29:08 PM 60.3833 -66.0000 83° East 490 564 35,000  Level Gander Center
Wed 10:30:08 PM 60.4000 -65.7333 83° East 500 575 35,000  Level Gander Center
Wed 10:31:08 PM 60.4167 -65.4667 83° East 500 575 35,000  Level Gander Center
Wed 10:32:08 PM 60.4500 -65.2000 76° East 500 575 35,000  Level Gander Center
Wed 10:33:08 PM 60.4667 -64.8833 84° East 500 575 35,000  Level Gander Center
Wed 10:34:08 PM 60.4833 -64.6167 83° East 500 575 35,000  Level Gander Center
Wed 10:35:08 PM 60.5000 -64.3500 83° East 500 575 35,000  Level Gander Center
Wed 10:36:08 PM 60.5167 -64.0833 83° East 500 575 35,000  Level Gander Center
Wed 10:37:08 PM 60.5333 -63.7833 83° East 500 575 35,000  Level Gander Center
Wed 10:38:08 PM 60.5500 -63.5167 83° East 490 564 35,000  Level Gander Center
Wed 10:39:08 PM 60.5667 -63.2500 83° East 490 564 35,000  Level Gander Center
Wed 10:40:08 PM 60.5667 -62.9667 90° East 490 564 35,000  Level Gander Center
Wed 10:41:08 PM 60.6000 -62.7000 76° East 490 564 35,000  Level Gander Center
Wed 10:42:08 PM 60.6333 -62.4333 76° East 490 564 35,000  Level Gander Center
Wed 10:43:08 PM 60.6833 -62.1333 71° East 500 575 35,000  Level Gander Center
Wed 10:44:08 PM 60.7167 -61.9000 74° East 500 575 35,000  Level Gander Center
Wed 10:45:08 PM 60.7500 -61.6167 76° East 520 598 35,000  Level Gander Center
Wed 10:46:08 PM 60.8000 -61.3500 69° East 510 587 35,000  Level Gander Center
Wed 10:47:08 PM 60.8500 -61.0833 69° East 510 587 35,000  Level Gander Center
Wed 10:48:08 PM 60.8833 -60.7667 78° East 510 587 35,000  Level Gander Center
Wed 10:49:08 PM 60.9333 -60.5000 69° East 520 598 35,000  Level Gander Center
Wed 10:50:08 PM 60.9833 -60.2167 70° East 520 598 35,000  Level Gander Center
Wed 10:51:08 PM 61.0000 -59.9500 83° East 520 598 35,000  Level Gander Center
Wed 10:52:08 PM 61.0167 -59.6333 84° East 510 587 35,000  Level Gander Center
Wed 10:53:08 PM 61.0333 -59.3667 83° East 510 587 35,000  Level Gander Center
Wed 10:54:08 PM 61.0500 -59.0500 84° East 510 587 35,000  Level Gander Center
Wed 10:55:08 PM 61.0667 -58.7833 83° East 510 587 35,000  Level Gander Center
Wed 10:56:08 PM 61.0500 -58.5000 97° East 510 587 35,000  Level Gander Center
Wed 10:57:08 PM 61.0667 -58.2000 83° East 510 587 35,000  Level Gander Center
Wed 10:58:08 PM 61.0667 -57.8833 90° East 510 587 35,000  Level Gander Center
Wed 10:59:08 PM 61.0833 -57.6000 83° East 520 598 35,000  Level Gander Center
Wed 11:00:08 PM 61.0833 -57.3000 90° East 520 598 35,000  Level Gander Center
Wed 11:01:08 PM 61.1000 -57.0167 83° East 520 598 35,000  Level Gander Center
Wed 11:02:08 PM 61.0833 -56.7167 96° East 520 598 35,000  Level Gander Center
Wed 11:03:08 PM 61.1000 -56.4333 83° East 520 598 35,000  Level Gander Center
Wed 11:04:08 PM 61.1000 -56.1167 90° East 520 598 35,000  Level Gander Center
Wed 11:05:08 PM 61.1167 -55.8167 83° East 520 598 35,000  Level Gander Center
Wed 11:06:08 PM 61.1167 -55.5333 90° East 520 598 35,000  Level Gander Center
Wed 11:07:08 PM 61.1000 -55.2333 96° East 520 598 35,000  Level Gander Center
Wed 11:08:08 PM 61.1000 -54.9167 90° East 520 598 35,000  Level Gander Center
Wed 11:09:08 PM 61.1000 -54.6333 90° East 520 598 35,000  Level Gander Center
Wed 11:10:08 PM 61.1167 -54.3333 83° East 520 598 35,000  Level Gander Center
Wed 11:11:08 PM 61.1167 -54.0167 90° East 530 610 35,000  Level Gander Center
Wed 11:12:08 PM 61.1000 -53.7167 96° East 530 610 35,000  Level Gander Center
Wed 11:13:08 PM 61.1000 -53.4000 90° East 530 610 35,000  Level Gander Center
Wed 11:14:08 PM 61.1000 -53.1333 90° East 540 621 35,000  Level Gander Center
Wed 11:15:08 PM 61.1000 -52.7833 90° East 540 621 35,000  Level Gander Center
Wed 11:16:08 PM 61.0833 -52.4667 96° East 540 621 35,000  Level Gander Center
Wed 11:17:08 PM 61.0667 -52.1667 96° East 540 621 35,000  Level Gander Center
Wed 11:18:08 PM 61.0667 -51.8500 90° East 550 633 35,000  Level Gander Center
Wed 11:19:08 PM 61.0667 -51.5500 90° East 550 633 35,000  Level Gander Center
Wed 11:20:08 PM 61.0500 -51.2333 96° East 550 633 35,000  Level Gander Center
Wed 11:21:08 PM 61.0500 -50.9167 90° East 550 633 35,000  Level Gander Center
Wed 11:22:08 PM 61.0333 -50.6167 96° East 550 633 35,000  Level Gander Center
Wed 11:23:08 PM 61.0167 -50.3167 96° East 550 633 35,000  Level Gander Center
Wed 11:24:08 PM 61.0167 -49.9667 90° East 550 633 35,000  Level Gander Center
Wed 11:25:08 PM 61.0167 -49.6500 90° East 560 644 35,000  Level Gander Center
Wed 11:26:08 PM 61.0333 -49.3333 84° East 570 656 35,000  Level Gander Center
Wed 11:27:08 PM 61.0333 -49.0167 90° East 570 656 35,000  Level Gander Center
Wed 11:28:08 PM 61.0500 -48.7000 84° East 570 656 35,000  Level Gander Center
Wed 11:29:08 PM 61.0667 -48.3833 84° East 570 656 35,000  Level Gander Center
Wed 11:30:08 PM 61.0667 -48.0667 90° East 570 656 35,000  Level Gander Center
Wed 11:31:08 PM 61.0667 -47.7167 90° East 570 656 35,000  Level Gander Center
Wed 11:32:08 PM 61.0833 -47.4000 84° East 580 667 35,000  Level Gander Center
Wed 11:33:08 PM 61.0833 -47.0833 90° East 580 667 35,000  Level Gander Center
Wed 11:34:08 PM 61.0833 -46.7333 90° East 580 667 35,000  Level Gander Center
Wed 11:35:08 PM 61.1000 -46.4167 84° East 580 667 35,000  Level Gander Center
Wed 11:36:08 PM 61.1000 -46.0667 90° East 590 679 35,000  Level Gander Center
Wed 11:37:08 PM 61.1000 -45.7167 90° East 590 679 35,000  Level Gander Center
Wed 11:38:08 PM 61.1000 -45.4000 90° East 590 679 35,000  Level Gander Center
Wed 11:39:08 PM 61.1000 -45.0500 90° East 590 679 35,000  Level Gander Center
Wed 11:40:08 PM 61.1000 -44.7333 90° East 590 679 35,000  Level Gander Center
Wed 11:41:08 PM 61.0833 -44.3833 95° East 590 679 35,000  Level Gander Center
Wed 11:42:08 PM 61.1000 -44.0333 84° East 590 679 35,000  Level Gander Center
Wed 11:43:08 PM 61.0833 -43.7167 96° East 600 690 35,000  Level Gander Center
Wed 11:44:08 PM 61.0833 -43.3667 90° East 590 679 35,000  Level Gander Center
Wed 11:45:08 PM 61.0833 -43.0500 90° East 600 690 35,000  Level Gander Center
Wed 11:46:08 PM 61.0833 -42.7000 90° East 600 690 35,000  Level Gander Center
Wed 11:47:08 PM 61.0667 -42.3500 95° East 590 679 35,000  Level Gander Center
Wed 11:48:08 PM 61.0667 -42.0333 90° East 600 690 35,000  Level Gander Center
Wed 11:49:08 PM 61.0500 -41.6833 95° East 590 679 35,000  Level Gander Center
Wed 11:50:08 PM 61.0500 -41.3333 90° East 600 690 35,000  Level Gander Center
Wed 11:51:08 PM 61.0500 -41.0167 90° East 600 690 35,000  Level Gander Center
Wed 11:52:08 PM 61.0333 -40.6667 95° East 600 690 35,000  Level Gander Center
Wed 11:53:08 PM 61.0167 -40.3333 96° East 600 690 35,000  Level Gander Center
Wed 11:54:08 PM 61.0167 -39.9833 90° East 600 690 35,000  Level Gander Center
Wed 11:55:08 PM 61.0000 -39.6667 96° East 600 690 35,000  Level Gander Center
Wed 11:56:08 PM 60.9667 -39.3167 101° East 600 690 35,000  Level Gander Center
Wed 11:57:08 PM 60.9333 -38.9833 101° East 600 690 35,000  Level Gander Center
Wed 11:58:08 PM 60.9167 -38.6500 96° East 600 690 35,000  Level Gander Center
Wed 11:59:08 PM 60.9000 -38.3000 95° East 600 690 35,000  Level Gander Center
Thu 12:00:08 AM 60.8667 -37.9667 101° East 600 690 35,000  Level Gander Center
Thu 12:01:08 AM 60.8500 -37.6333 96° East 600 690 35,000  Level Gander Center
Thu 12:02:08 AM 60.8167 -37.2833 101° East 600 690 35,000  Level Gander Center
Thu 12:03:08 AM 60.8000 -36.9833 96° East 600 690 35,000  Level Gander Center
Thu 12:04:08 AM 60.7500 -36.6500 107° East 600 690 35,000  Level Gander Center
Thu 12:05:08 AM 60.7333 -36.3167 96° East 600 690 35,000  Level Gander Center
Thu 12:06:08 AM 60.7000 -35.9833 101° East 600 690 35,000  Level Gander Center
Thu 12:07:08 AM 60.6667 -35.6500 101° East 600 690 35,000  Level Gander Center
Thu 12:08:08 AM 60.6500 -35.3167 96° East 610 702 35,000  Level Gander Center
Thu 12:09:08 AM 60.6167 -34.9833 101° East 600 690 35,000  Level Gander Center
Thu 12:10:25 AM 60.5667 -34.5833 104° East 560 644 35,000  Level Gander Center
Thu 12:11:25 AM 60.5500 -34.2833 96° East 590 679 35,000 12 Level Gander Center
Thu 12:13:00 AM 60.4995 -33.8338 103° East  Level FlightAware Approximate
Thu 12:20:00 AM 60.2586 -31.8638 103° East  Level FlightAware Approximate
Thu 12:21:00 AM 60.2218 -31.5848 105° East  Level FlightAware Approximate
Thu 12:22:00 AM 60.1844 -31.3064 105° East  Level FlightAware Approximate
Thu 12:23:00 AM 60.1465 -31.0287 105° East  Level FlightAware Approximate
Thu 12:24:00 AM 60.1079 -30.7516 105° East  Level FlightAware Approximate
Thu 12:25:00 AM 60.0688 -30.4752 106° East  Level FlightAware Approximate
Thu 12:26:00 AM 60.0291 -30.1994 106° East  Level FlightAware Approximate
Thu 12:27:00 AM 59.9885 -29.9241 107° East  Level FlightAware Approximate
Thu 12:28:00 AM 59.9464 -29.6504 107° East  Level FlightAware Approximate
Thu 12:29:00 AM 59.9038 -29.3775 107° East  Level FlightAware Approximate
Thu 12:30:00 AM 59.8606 -29.1052 107° East  Level FlightAware Approximate
Thu 12:31:00 AM 59.8169 -28.8336 108° East  Level FlightAware Approximate
Thu 12:32:00 AM 59.7726 -28.5627 108° East  Level FlightAware Approximate
Thu 12:33:00 AM 59.7277 -28.2926 108° East  Level FlightAware Approximate
Thu 12:34:00 AM 59.6823 -28.0232 108° East  Level FlightAware Approximate
Thu 12:35:00 AM 59.6363 -27.7545 109° East  Level FlightAware Approximate
Thu 12:36:00 AM 59.5898 -27.4866 109° East  Level FlightAware Approximate
Thu 12:37:00 AM 59.5428 -27.2194 109° East  Level FlightAware Approximate
Thu 12:38:00 AM 59.4952 -26.9529 109° East  Level FlightAware Approximate
Thu 12:39:00 AM 59.4470 -26.6872 110° East  Level FlightAware Approximate
Thu 12:40:00 AM 59.3984 -26.4223 110° East  Level FlightAware Approximate
Thu 12:41:00 AM 59.3492 -26.1581 110° East  Level FlightAware Approximate
Thu 12:42:00 AM 59.2994 -25.8948 110° East  Level FlightAware Approximate
Thu 12:43:00 AM 59.2491 -25.6321 110° East  Level FlightAware Approximate
Thu 12:44:00 AM 59.1983 -25.3703 111° Southeast  Level FlightAware Approximate
Thu 12:45:00 AM 59.1470 -25.1092 111° Southeast  Level FlightAware Approximate
Thu 12:46:00 AM 59.0952 -24.8490 111° Southeast  Level FlightAware Approximate
Thu 12:47:00 AM 59.0428 -24.5895 111° Southeast  Level FlightAware Approximate
Thu 12:48:00 AM 58.9899 -24.3308 112° Southeast  Level FlightAware Approximate
Thu 12:49:00 AM 58.9365 -24.0729 112° Southeast  Level FlightAware Approximate
Thu 12:50:00 AM 58.8826 -23.8158 112° Southeast  Level FlightAware Approximate
Thu 12:51:00 AM 58.8282 -23.5595 112° Southeast  Level FlightAware Approximate
Thu 12:52:00 AM 58.7733 -23.3040 112° Southeast  Level FlightAware Approximate
Thu 12:53:00 AM 58.7178 -23.0493 113° Southeast  Level FlightAware Approximate
Thu 12:54:00 AM 58.6619 -22.7955 113° Southeast  Level FlightAware Approximate
Thu 12:55:00 AM 58.6055 -22.5424 113° Southeast  Level FlightAware Approximate
Thu 12:56:00 AM 58.5486 -22.2902 113° Southeast  Level FlightAware Approximate
Thu 12:57:00 AM 58.4912 -22.0388 114° Southeast  Level FlightAware Approximate
Thu 12:58:00 AM 58.4333 -21.7882 114° Southeast  Level FlightAware Approximate
Thu 12:59:00 AM 58.3749 -21.5384 114° Southeast  Level FlightAware Approximate
Thu 01:00:00 AM 58.3160 -21.2895 114° Southeast  Level FlightAware Approximate
Thu 01:01:00 AM 58.2566 -21.0414 114° Southeast  Level FlightAware Approximate
Thu 01:02:00 AM 58.1968 -20.7942 115° Southeast  Level FlightAware Approximate
Thu 01:03:00 AM 58.1365 -20.5477 115° Southeast  Level FlightAware Approximate
Thu 01:04:00 AM 58.0757 -20.3021 115° Southeast  Level FlightAware Approximate
Thu 01:05:00 AM 58.0145 -20.0574 115° Southeast  Level FlightAware Approximate
Thu 01:06:00 AM 57.9781 -19.7974 101° East  Level FlightAware Approximate
Thu 01:07:00 AM 57.9491 -19.5329 102° East  Level FlightAware Approximate
Thu 01:08:00 AM 57.9195 -19.2688 102° East  Level FlightAware Approximate
Thu 01:09:00 AM 57.8894 -19.0051 102° East  Level FlightAware Approximate
Thu 01:10:00 AM 57.8587 -18.7419 102° East  Level FlightAware Approximate
Thu 01:11:00 AM 57.8274 -18.4792 102° East  Level FlightAware Approximate
Thu 01:12:00 AM 57.7957 -18.2169 103° East  Level FlightAware Approximate
Thu 01:13:00 AM 57.7634 -17.9551 103° East  Level FlightAware Approximate
Thu 01:14:00 AM 57.7305 -17.6937 103° East  Level FlightAware Approximate
Thu 01:15:00 AM 57.6971 -17.4329 103° East  Level FlightAware Approximate
Thu 01:16:00 AM 57.6632 -17.1725 104° East  Level FlightAware Approximate
Thu 01:17:00 AM 57.6287 -16.9126 104° East  Level FlightAware Approximate
Thu 01:18:00 AM 57.5938 -16.6532 104° East  Level FlightAware Approximate
Thu 01:19:00 AM 57.5582 -16.3943 104° East  Level FlightAware Approximate
Thu 01:20:00 AM 57.5222 -16.1359 104° East  Level FlightAware Approximate
Thu 01:21:00 AM 57.4856 -15.8780 105° East  Level FlightAware Approximate
Thu 01:22:00 AM 57.4485 -15.6206 105° East  Level FlightAware Approximate
Thu 01:23:00 AM 57.4109 -15.3638 105° East  Level FlightAware Approximate
Thu 01:24:00 AM 57.3727 -15.1075 105° East  Level FlightAware Approximate
Thu 01:25:00 AM 57.3341 -14.8517 106° East  Level FlightAware Approximate
Thu 01:26:00 AM 57.2949 -14.5965 106° East  Level FlightAware Approximate
Thu 01:27:00 AM 57.2552 -14.3418 106° East  Level FlightAware Approximate
Thu 01:28:00 AM 57.2150 -14.0877 106° East  Level FlightAware Approximate
Thu 01:29:00 AM 57.1743 -13.8341 106° East  Level FlightAware Approximate
Thu 01:30:00 AM 57.1330 -13.5811 107° East  Level FlightAware Approximate
Thu 01:31:00 AM 57.0913 -13.3287 107° East  Level FlightAware Approximate
Thu 01:32:00 AM 57.0490 -13.0768 107° East  Level FlightAware Approximate
Thu 01:32:58 AM 56.6520 -11.2880 107° East 506 582 36,000  Level FlightAware ADS-B
Thu 01:33:00 AM 57.0063 -12.8255 107° East  Level FlightAware Approximate
Thu 01:34:00 AM 56.9630 -12.5748 107° East  Level FlightAware Approximate
Thu 01:34:38 AM 56.6060 -10.8810 101° East 506 582 36,000  Level FlightAware ADS-B
Thu 01:35:13 AM 56.5900 -10.7480 102° East 506 582 36,000  Level FlightAware ADS-B
Thu 01:35:58 AM 56.5660 -10.5450 102° East 506 582 36,000  Level FlightAware ADS-B
Thu 01:36:33 AM 56.5470 -10.4010 103° East 504 580 36,000  Level FlightAware ADS-B
Thu 01:37:23 AM 56.5190 -10.1950 104° East 503 579 36,000  Level FlightAware ADS-B
Thu 01:38:03 AM 56.4960 -10.0270 104° East 504 580 36,000 212 Level FlightAware ADS-B
Thu 01:38:48 AM 56.4710 -9.8430 104° East 499 574 36,300 424 Climbing FlightAware ADS-B
Thu 01:39:28 AM 56.4480 -9.6770 104° East 500 575 36,600 480 Climbing FlightAware ADS-B
Thu 01:40:03 AM 56.4280 -9.5310 104° East 502 578 36,900 282 Climbing FlightAware ADS-B
Thu 01:40:53 AM 56.3990 -9.3310 105° East 503 579 37,000 63 Climbing FlightAware ADS-B
Thu 01:41:38 AM 56.3740 -9.1510 104° East 504 580 37,000 -1,184 Level FlightAware ADS-B
Thu 01:42:09 AM 56.3535 -9.0030 104° East 502 578 35,500  Descending FlightAware UK
Thu 01:42:18 AM 56.3500 -8.9880 104° East 505 581 37,000  Climbing FlightAware ADS-B
Thu 01:42:33 AM 56.3386 -8.9059 104° East 500 575 35,500 -2,727 Descending FlightAware UK
Thu 01:42:51 AM 56.3279 -8.8328 105° East 500 575 35,500  Level FlightAware UK
Thu 01:43:09 AM 56.3171 -8.7590 105° East 504 580 35,500  Level FlightAware UK
Thu 01:43:27 AM 56.3064 -8.6860 105° East 500 575 35,500  Level FlightAware UK
Thu 01:43:45 AM 56.2958 -8.6129 105° East 500 575 35,500  Level FlightAware UK
Thu 01:44:03 AM 56.2851 -8.5402 105° East 502 578 35,500  Level FlightAware UK
Thu 01:44:21 AM 56.2742 -8.4676 105° East 498 573 35,500  Level FlightAware UK
Thu 01:44:39 AM 56.2632 -8.3954 105° East 500 575 35,500  Level FlightAware UK
Thu 01:44:57 AM 56.2521 -8.3232 105° East 500 575 35,500  Level FlightAware UK
Thu 01:45:15 AM 56.2412 -8.2509 105° East 498 573 35,500  Level FlightAware UK
Thu 01:45:33 AM 56.2302 -8.1786 105° East 498 573 35,500  Level FlightAware UK
Thu 01:45:51 AM 56.2192 -8.1063 105° East 498 573 35,500  Level FlightAware UK
Thu 01:46:09 AM 56.2083 -8.0338 105° East 500 575 35,500  Level FlightAware UK
Thu 01:46:27 AM 56.1973 -7.9614 105° East 498 573 35,500  Level FlightAware UK
Thu 01:46:45 AM 56.1860 -7.8891 106° East 498 573 35,500  Level FlightAware UK
Thu 01:47:03 AM 56.1747 -7.8169 106° East 500 575 35,500  Level FlightAware UK
Thu 01:47:21 AM 56.1634 -7.7447 106° East 500 575 35,500  Level FlightAware UK
Thu 01:47:39 AM 56.1521 -7.6724 106° East 500 575 35,500  Level FlightAware UK
Thu 01:47:57 AM 56.1407 -7.6001 106° East 500 575 35,500  Level FlightAware UK
Thu 01:48:15 AM 56.1292 -7.5278 106° East 500 575 35,500  Level FlightAware UK
Thu 01:48:34 AM 56.1177 -7.4548 106° East 498 573 35,500 2,727 Level FlightAware UK
Thu 01:48:48 AM 56.1150 -7.4410 106° East 504 580 37,000  Climbing FlightAware ADS-B
Thu 01:49:04 AM 56.0985 -7.3346 106° East 502 578 35,500 -2,647 Descending FlightAware UK
Thu 01:49:22 AM 56.0868 -7.2625 106° East 500 575 35,500 3,103 Level FlightAware UK
Thu 01:49:33 AM 56.0820 -7.2370 106° East 503 579 37,000  Climbing FlightAware ADS-B
Thu 01:49:52 AM 56.0674 -7.1428 106° East 502 578 35,500 -2,432 Descending FlightAware UK
Thu 01:50:10 AM 56.0558 -7.0710 106° East 502 578 35,500 4,286 Level FlightAware UK
Thu 01:50:13 AM 56.0570 -7.0820 106° East 502 578 37,000  Climbing FlightAware ADS-B
Thu 01:50:28 AM 56.0441 -6.9994 106° East 500 575 35,500 -2,727 Descending FlightAware UK
Thu 01:50:46 AM 56.0323 -6.9279 106° East 500 575 35,500 3,000 Level FlightAware UK
Thu 01:50:58 AM 56.0270 -6.8990 106° East 502 578 37,000  Climbing FlightAware ADS-B
Thu 01:51:16 AM 56.0128 -6.8088 106° East 498 573 35,500 -2,500 Descending FlightAware UK
Thu 01:51:34 AM 56.0009 -6.7375 107° East 496 571 35,500 4,091 Level FlightAware UK
Thu 01:51:38 AM 56.0010 -6.7400 107° East 502 578 37,000  Climbing FlightAware ADS-B
Thu 01:51:58 AM 55.9850 -6.6424 107° East 498 573 35,500 -2,368 Descending FlightAware UK
Thu 01:52:16 AM 55.9732 -6.5710 106° East 496 571 35,500 3,600 Level FlightAware UK
Thu 01:52:23 AM 55.9700 -6.5570 106° East 503 579 37,000  Climbing FlightAware ADS-B
Thu 01:52:40 AM 55.9572 -6.4758 106° East 500 575 35,500 -2,571 Descending FlightAware UK
Thu 01:52:58 AM 55.9451 -6.4045 107° East 500 575 35,500 3,913 Level FlightAware UK
Thu 01:53:03 AM 55.9430 -6.3950 107° East 502 578 37,000  Climbing FlightAware ADS-B
Thu 01:53:22 AM 55.9289 -6.3095 107° East 498 573 35,500 -2,432 Descending FlightAware UK
Thu 01:53:40 AM 55.9167 -6.2384 107° East 500 575 35,500 4,286 Level FlightAware UK
Thu 01:53:43 AM 55.9160 -6.2330 107° East 501 577 37,000  Climbing FlightAware ADS-B
Thu 01:53:58 AM 55.9046 -6.1673 107° East 500 575 35,500 -2,727 Descending FlightAware UK
Thu 01:54:16 AM 55.8923 -6.0956 107° East 500 575 35,500  Level FlightAware UK
Thu 01:54:34 AM 55.8800 -6.0248 107° East 498 573 35,500  Level FlightAware UK
Thu 01:54:52 AM 55.8678 -5.9540 107° East 498 573 35,500  Level FlightAware UK
Thu 01:55:10 AM 55.8554 -5.8832 107° East 498 573 35,500  Level FlightAware UK
Thu 01:55:28 AM 55.8430 -5.8125 107° East 498 573 35,500  Level FlightAware UK
Thu 01:55:46 AM 55.8306 -5.7419 107° East 498 573 35,500 2,571 Level FlightAware UK
Thu 01:56:03 AM 55.8230 -5.7020 107° East 500 575 37,000  Climbing FlightAware ADS-B
Thu 01:56:22 AM 55.8057 -5.6008 107° East 500 575 35,500 -2,432 Descending FlightAware UK
Thu 01:56:40 AM 55.7932 -5.5303 107° East 502 578 35,500 3,462 Level FlightAware UK
Thu 01:56:48 AM 55.7890 -5.5090 107° East 500 575 37,000  Climbing FlightAware ADS-B
Thu 01:57:04 AM 55.7766 -5.4365 107° East 500 575 35,500 -2,647 Descending FlightAware UK
Thu 01:57:22 AM 55.7642 -5.3663 107° East 500 575 35,500 3,750 Level FlightAware UK
Thu 01:57:28 AM 55.7620 -5.3580 107° East 498 573 37,000  Climbing FlightAware ADS-B
Thu 01:57:46 AM 55.7474 -5.2730 107° East 500 575 35,500 -2,500 Descending FlightAware UK
Thu 01:58:04 AM 55.7348 -5.2031 108° East 496 571 35,500 4,091 Level FlightAware UK
Thu 01:58:08 AM 55.7340 -5.2020 108° East 498 573 37,000  Climbing FlightAware ADS-B
Thu 01:58:28 AM 55.7180 -5.1100 108° East 506 582 35,500 -2,368 Descending FlightAware UK
Thu 01:58:46 AM 55.7053 -5.0402 108° East 504 580 35,500 3,600 Level FlightAware UK
Thu 01:58:53 AM 55.7010 -5.0200 108° East 497 572 37,000  Climbing FlightAware ADS-B
Thu 01:59:10 AM 55.6883 -4.9474 108° East 502 578 35,500 -2,571 Descending FlightAware UK
Thu 01:59:28 AM 55.6755 -4.8772 108° East 500 575 35,500 3,214 Level FlightAware UK
Thu 01:59:38 AM 55.6700 -4.8470 108° East 495 570 37,000  Climbing FlightAware ADS-B
Thu 01:59:58 AM 55.6543 -4.7620 108° East 504 580 35,500  Descending FlightAware UK
Thu 02:00:18 AM 55.6420 -4.6970 108° East 492 566 37,000  Climbing FlightAware ADS-B
Thu 02:00:34 AM 55.6268 -4.6266 108° East 500 575 35,500 -2,647 Descending FlightAware UK
Thu 02:00:52 AM 55.6073 -4.5633 119° Southeast 500 575 35,500  Level FlightAware UK
Thu 02:01:10 AM 55.5869 -4.5011 120° Southeast 500 575 35,500  Level FlightAware UK
Thu 02:01:28 AM 55.5657 -4.4406 122° Southeast 500 575 35,500  Level FlightAware UK
Thu 02:01:46 AM 55.5437 -4.3805 123° Southeast 496 571 35,500  Level FlightAware UK
Thu 02:02:04 AM 55.5218 -4.3203 123° Southeast 494 568 35,500 2,432 Level FlightAware UK
Thu 02:02:23 AM 55.5070 -4.2800 123° Southeast 486 559 37,000  Climbing FlightAware ADS-B
Thu 02:02:40 AM 55.4780 -4.2005 123° Southeast 494 568 35,500 -2,571 Descending FlightAware UK
Thu 02:02:58 AM 55.4561 -4.1405 123° Southeast 496 571 35,500  Level FlightAware UK
Thu 02:03:16 AM 55.4339 -4.0798 123° Southeast 502 578 35,500  Level FlightAware UK
Thu 02:03:34 AM 55.4121 -4.0199 123° Southeast 502 578 35,500 2,813 Level FlightAware UK
Thu 02:03:48 AM 55.4040 -3.9970 123° Southeast 485 558 37,000  Climbing FlightAware ADS-B
Thu 02:04:04 AM 55.3756 -3.9205 123° Southeast 500 575 35,500 -2,647 Descending FlightAware UK
Thu 02:04:22 AM 55.3538 -3.8609 123° Southeast 500 575 35,500 3,750 Level FlightAware UK
Thu 02:04:28 AM 55.3530 -3.8580 123° Southeast 484 557 37,000  Climbing FlightAware ADS-B
Thu 02:04:46 AM 55.3250 -3.7814 123° Southeast 498 573 35,500 -2,500 Descending FlightAware UK
Thu 02:05:04 AM 55.3032 -3.7224 123° Southeast 502 578 35,500 3,333 Level FlightAware UK
Thu 02:05:13 AM 55.2950 -3.7030 123° Southeast 483 556 37,000  Climbing FlightAware ADS-B
Thu 02:05:28 AM 55.2741 -3.6435 123° Southeast 500 575 35,500 -2,727 Descending FlightAware UK
Thu 02:05:46 AM 55.2522 -3.5846 123° Southeast 500 575 35,500 3,600 Level FlightAware UK
Thu 02:05:53 AM 55.2470 -3.5720 123° Southeast 482 555 37,000  Climbing FlightAware ADS-B
Thu 02:06:10 AM 55.2232 -3.5065 123° Southeast 500 575 35,500 -2,571 Descending FlightAware UK
Thu 02:06:28 AM 55.2012 -3.4473 123° Southeast 498 573 35,500 3,913 Level FlightAware UK
Thu 02:06:33 AM 55.1990 -3.4450 123° Southeast 480 552 37,000  Climbing FlightAware ADS-B
Thu 02:06:52 AM 55.1722 -3.3690 123° Southeast 498 573 35,500 -2,432 Descending FlightAware UK
Thu 02:07:10 AM 55.1505 -3.3104 123° Southeast 496 571 35,500 3,462 Level FlightAware UK
Thu 02:07:18 AM 55.1480 -3.3050 123° Southeast 480 552 37,000  Climbing FlightAware ADS-B
Thu 02:07:40 AM 55.1140 -3.2133 123° Southeast 494 568 35,500  Descending FlightAware UK
Thu 02:07:53 AM 55.1070 -3.1950 123° Southeast 480 552 37,000  Climbing FlightAware ADS-B
Thu 02:08:11 AM 55.0771 -3.1158 123° Southeast 494 568 35,500 -2,500 Descending FlightAware UK
Thu 02:08:29 AM 55.0551 -3.0575 123° Southeast 496 571 35,500 3,333 Level FlightAware UK
Thu 02:08:38 AM 55.0460 -3.0340 123° Southeast 482 555 37,000  Climbing FlightAware ADS-B
Thu 02:09:11 AM 55.0035 -2.9218 123° Southeast 496 571 35,500  Descending FlightAware UK
Thu 02:09:23 AM 54.9910 -2.8910 123° Southeast 482 555 37,000  Climbing FlightAware ADS-B
Thu 02:09:41 AM 54.9664 -2.8242 123° Southeast 496 571 35,500  Descending FlightAware UK
Thu 02:10:08 AM 54.9350 -2.7430 123° Southeast 483 556 37,000  Climbing FlightAware ADS-B
Thu 02:10:35 AM 54.8994 -2.6501 123° Southeast 496 571 35,500  Descending FlightAware UK
Thu 02:10:48 AM 54.8870 -2.6170 123° Southeast 484 557 37,000  Climbing FlightAware ADS-B
Thu 02:11:05 AM 54.8621 -2.5533 123° Southeast 496 571 35,500 -2,571 Descending FlightAware UK
Thu 02:11:23 AM 54.8394 -2.4947 124° Southeast 496 571 35,500 3,913 Level FlightAware UK
Thu 02:11:28 AM 54.8370 -2.4880 124° Southeast 485 558 37,000  Climbing FlightAware ADS-B
Thu 02:11:53 AM 54.8020 -2.3978 124° Southeast 500 575 35,500  Descending FlightAware UK
Thu 02:12:13 AM 54.7790 -2.3430 124° Southeast 486 559 37,000 1,500 Climbing FlightAware ADS-B
Thu 02:12:53 AM 54.7240 -2.2170 127° Southeast 484 557 37,000 -1,184 Level FlightAware ADS-B
Thu 02:13:29 AM 54.6694 -2.1042 127° Southeast 500 575 35,500  Descending FlightAware UK
Thu 02:13:33 AM 54.6690 -2.1050 127° Southeast 484 557 37,000  Climbing FlightAware ADS-B
Thu 02:13:53 AM 54.6335 -2.0344 127° Southeast 502 578 35,500 -2,368 Descending FlightAware UK
Thu 02:14:11 AM 54.6067 -1.9836 132° Southeast 502 578 35,500 3,600 Level FlightAware UK
Thu 02:14:18 AM 54.5990 -1.9700 132° Southeast 483 556 37,000  Climbing FlightAware ADS-B
Thu 02:14:41 AM 54.5615 -1.8974 132° Southeast 500 575 35,500  Descending FlightAware UK
Thu 02:14:58 AM 54.5390 -1.8550 132° Southeast 482 555 37,000  Climbing FlightAware ADS-B
Thu 02:15:23 AM 54.4992 -1.7771 132° Southeast 498 573 35,500  Descending FlightAware UK
Thu 02:15:43 AM 54.4730 -1.7260 132° Southeast 483 556 37,000  Climbing FlightAware ADS-B
Thu 02:16:18 AM 54.4192 -1.6217 132° Southeast 496 571 35,500  Descending FlightAware UK
Thu 02:16:23 AM 54.4160 -1.6170 132° Southeast 482 555 37,000  Climbing FlightAware ADS-B
Thu 02:16:42 AM 54.3840 -1.5527 132° Southeast 496 571 35,500  Descending FlightAware UK
Thu 02:17:03 AM 54.3550 -1.5000 132° Southeast 484 557 37,000  Climbing FlightAware ADS-B
Thu 02:17:36 AM 54.3125 -1.3864 132° Southeast 502 578 35,500  Descending FlightAware UK
Thu 02:17:48 AM 54.3020 -1.3590 132° Southeast 486 559 37,000  Climbing FlightAware ADS-B
Thu 02:18:06 AM 54.2774 -1.2869 132° Southeast 500 575 35,500 -2,500 Descending FlightAware UK
Thu 02:18:24 AM 54.2565 -1.2278 121° Southeast 498 573 35,500 4,091 Level FlightAware UK
Thu 02:18:28 AM 54.2530 -1.2210 121° Southeast 485 558 37,000  Climbing FlightAware ADS-B
Thu 02:18:48 AM 54.2283 -1.1495 121° Southeast 500 575 35,500 -2,368 Descending FlightAware UK
Thu 02:19:06 AM 54.2071 -1.0909 122° Southeast 498 573 35,500 3,600 Level FlightAware UK
Thu 02:19:13 AM 54.2020 -1.0780 122° Southeast 485 558 37,000  Climbing FlightAware ADS-B
Thu 02:19:36 AM 54.1709 -0.9933 122° Southeast 500 575 35,500  Descending FlightAware UK
Thu 02:19:53 AM 54.1530 -0.9490 122° Southeast 482 555 37,000  Climbing FlightAware ADS-B
Thu 02:20:18 AM 54.1203 -0.8591 122° Southeast 498 573 35,500  Descending FlightAware UK
Thu 02:20:33 AM 54.1070 -0.8240 122° Southeast 482 555 37,000  Climbing FlightAware ADS-B
Thu 02:21:06 AM 54.0623 -0.7052 122° Southeast 496 571 35,500  Descending FlightAware UK
Thu 02:21:18 AM 54.0570 -0.6930 122° Southeast 482 555 37,000  Climbing FlightAware ADS-B
Thu 02:21:48 AM 54.0118 -0.5713 122° Southeast 496 571 35,500  Descending FlightAware UK
Thu 02:21:58 AM 54.0010 -0.5460 122° Southeast 483 556 37,000  Climbing FlightAware ADS-B
Thu 02:22:18 AM 53.9755 -0.4757 122° Southeast 494 568 35,500 -2,368 Descending FlightAware UK
Thu 02:22:36 AM 53.9536 -0.4177 123° Southeast 496 571 35,500 3,600 Level FlightAware UK
Thu 02:22:43 AM 53.9480 -0.4030 123° Southeast 483 556 37,000  Climbing FlightAware ADS-B
Thu 02:23:12 AM 53.9102 -0.3028 123° Southeast 500 575 35,500  Descending FlightAware UK
Thu 02:23:23 AM 53.9000 -0.2790 123° Southeast 484 557 37,000  Climbing FlightAware ADS-B
Thu 02:23:55 AM 53.8592 -0.1684 123° Southeast 502 578 35,500  Descending FlightAware UK
Thu 02:24:08 AM 53.8460 -0.1350 123° Southeast 482 555 37,000  Climbing FlightAware ADS-B
Thu 02:24:43 AM 53.8014 -0.0162 123° Southeast 500 575 35,500  Descending FlightAware UK
Thu 02:24:48 AM 53.7990 -0.0120 123° Southeast 480 552 37,000  Climbing FlightAware ADS-B
Thu 02:25:19 AM 53.7577 0.0973 123° Southeast 498 573 35,500  Descending FlightAware UK
Thu 02:25:23 AM 53.7610 0.0880 123° Southeast 478 550 37,000  Climbing FlightAware ADS-B
Thu 02:25:43 AM 53.7288 0.1723 123° Southeast 500 575 35,500 -2,368 Descending FlightAware UK
Thu 02:26:01 AM 53.7072 0.2283 123° Southeast 498 573 35,500 3,000 Level FlightAware UK
Thu 02:26:13 AM 53.6980 0.2500 123° Southeast 476 548 37,000  Climbing FlightAware ADS-B
Thu 02:26:49 AM 53.6495 0.3772 123° Southeast 500 575 35,500  Descending FlightAware UK
Thu 02:26:53 AM 53.6470 0.3840 123° Southeast 476 548 37,000 -750 Climbing FlightAware ADS-B
Thu 02:27:13 AM 53.6204 0.4523 123° Southeast 502 578 35,200 -3,000 Descending FlightAware UK
Thu 02:27:31 AM 53.5986 0.5081 123° Southeast 508 585 35,100 3,360 Descending FlightAware UK
Thu 02:27:38 AM 53.5930 0.5210 123° Southeast 478 550 36,600 -667 Climbing FlightAware ADS-B
Thu 02:28:07 AM 53.5530 0.6178 123° Southeast 500 575 34,700 -600 Descending FlightAware UK
Thu 02:28:18 AM 53.5420 0.6410 123° Southeast 473 544 36,200 -429 Climbing FlightAware ADS-B
Thu 02:28:49 AM 53.4972 0.7412 123° Southeast 500 575 34,400 -300 Descending FlightAware UK
Thu 02:28:58 AM 53.4900 0.7550 123° Southeast 473 544 36,000 1,778 Climbing FlightAware ADS-B
Thu 02:29:43 AM 53.4320 0.8860 127° Southeast 467 537 36,000  Level FlightAware ADS-B
Thu 02:30:23 AM 53.3850 1.0040 124° Southeast 467 537 36,000 -1,250 Level FlightAware ADS-B
Thu 02:30:55 AM 53.3432 1.1186 124° Southeast 488 562 34,500  Descending FlightAware UK
Thu 02:31:08 AM 53.3310 1.1480 124° Southeast 465 535 36,000  Climbing FlightAware ADS-B
Thu 02:31:25 AM 53.3089 1.2102 124° Southeast 488 562 34,500  Descending FlightAware UK
Thu 02:31:43 AM 53.2910 1.2540 124° Southeast 465 535 36,000  Climbing FlightAware ADS-B
Thu 02:32:07 AM 53.2606 1.3378 124° Southeast 490 564 34,500  Descending FlightAware UK
Thu 02:32:28 AM 53.2410 1.3910 124° Southeast 465 535 36,000  Climbing FlightAware ADS-B
Thu 02:32:50 AM 53.2127 1.4662 124° Southeast 486 559 34,500 -2,308 Descending FlightAware UK
Thu 02:33:07 AM 53.1925 1.5204 122° Southeast 486 559 34,500 3,913 Level FlightAware UK
Thu 02:33:13 AM 53.1910 1.5260 122° Southeast 467 537 36,000  Climbing FlightAware ADS-B
Thu 02:33:38 AM 53.1582 1.6137 122° Southeast 488 562 34,500 -171 Descending FlightAware UK
Thu 02:33:48 AM 53.1510 1.6330 122° Southeast 468 539 35,900 -1,833 Climbing FlightAware ADS-B
Thu 02:34:14 AM 53.1176 1.7244 122° Southeast 484 557 33,400 -1,920 Descending FlightAware UK
Thu 02:34:38 AM 53.0970 1.7870 122° Southeast 458 527 34,300 -1,857 Climbing FlightAware ADS-B
Thu 02:34:56 AM 53.0758 1.8537 122° Southeast 490 564 32,100 -4,667 Descending FlightAware UK
Thu 02:35:14 AM 53.0606 1.9104 114° Southeast 476 548 31,500 3,000 Descending FlightAware UK
Thu 02:35:18 AM 53.0630 1.8950 114° Southeast 446 513 33,200 2,211 Climbing FlightAware ADS-B
Thu 02:35:33 AM 53.0610 1.9080 104° East 457 526 32,200 -6,375 Descending FlightAware ADS-B
Thu 02:35:50 AM 53.0427 2.0339 104° East 476 548 29,800 -4,244 Descending FlightAware UK
Thu 02:36:14 AM 53.0326 2.1171 101° East 470 541 29,300 2,143 Descending FlightAware UK
Thu 02:36:18 AM 53.0330 2.1130 101° East 463 533 30,800 -1,750 Climbing FlightAware ADS-B
Thu 02:36:38 AM 53.0165 2.1931 101° East 464 534 28,600 -2,160 Descending FlightAware UK
Thu 02:37:08 AM 53.0020 2.2760 101° East 435 501 29,000 -2,625 Climbing FlightAware ADS-B
Thu 02:37:26 AM 52.9893 2.3468 101° East 458 527 26,500 -5,333 Descending FlightAware UK
Thu 02:37:44 AM 52.9792 2.4036 106° East 458 527 25,800 1,111 Descending FlightAware UK
Thu 02:37:53 AM 52.9760 2.4220 106° East 424 488 27,000 -2,667 Climbing FlightAware ADS-B
Thu 02:38:20 AM 52.9588 2.5148 106° East 454 522 24,200 -2,400 Descending FlightAware UK
Thu 02:38:33 AM 52.9550 2.5330 106° East 414 476 25,400 -2,000 Climbing FlightAware ADS-B
Thu 02:38:50 AM 52.9357 2.5985 106° East 442 509 23,200 -4,629 Descending FlightAware UK
Thu 02:39:08 AM 52.9193 2.6441 121° Southeast 432 497 22,700 1,714 Descending FlightAware UK
Thu 02:39:18 AM 52.9130 2.6610 121° Southeast 378 435 24,000 -1,667 Climbing FlightAware ADS-B
Thu 02:39:44 AM 52.8900 2.7359 121° Southeast 420 483 21,700 -1,200 Descending FlightAware UK
Thu 02:39:53 AM 52.8920 2.7300 121° Southeast 374 430 23,300 -1,750 Climbing FlightAware ADS-B
Thu 02:40:08 AM 52.8715 2.7982 121° Southeast 416 479 21,000 -4,462 Descending FlightAware UK
Thu 02:40:32 AM 52.8533 2.8603 116° Southeast 412 474 20,400 2,000 Descending FlightAware UK
Thu 02:40:38 AM 52.8570 2.8490 116° Southeast 373 429 22,000 -1,667 Climbing FlightAware ADS-B
Thu 02:41:08 AM 52.8268 2.9526 116° Southeast 404 465 19,400 -1,733 Descending FlightAware UK
Thu 02:41:23 AM 52.8210 2.9690 116° Southeast 363 418 20,700 -1,800 Climbing FlightAware ADS-B
Thu 02:41:38 AM 52.8048 3.0285 116° Southeast 394 453 18,500 -4,308 Descending FlightAware UK
Thu 02:42:02 AM 52.7885 3.0861 115° Southeast 382 440 17,900 1,200 Descending FlightAware UK
Thu 02:42:18 AM 52.7870 3.0920 115° Southeast 348 400 19,300 -1,667 Climbing FlightAware ADS-B
Thu 02:42:56 AM 52.7502 3.2179 115° Southeast 380 437 16,400 -1,800 Descending FlightAware UK
Thu 02:42:58 AM 52.7590 3.1870 115° Southeast 356 410 18,100 1,021 Climbing FlightAware ADS-B
Thu 02:43:43 AM 52.7250 3.3030 116° Southeast 360 414 17,200 -1,350 Descending FlightAware ADS-B
Thu 02:44:18 AM 52.6980 3.3930 116° Southeast 364 419 16,300 -3,709 Descending FlightAware ADS-B
Thu 02:44:38 AM 52.6757 3.4711 116° Southeast 382 440 13,800 -4,579 Descending FlightAware UK
Thu 02:44:56 AM 52.6620 3.5150 117° Southeast 378 435 13,400 2,880 Descending FlightAware UK
Thu 02:45:03 AM 52.6640 3.5050 117° Southeast 347 399 15,000 -1,750 Climbing FlightAware ADS-B
Thu 02:45:20 AM 52.6460 3.5711 117° Southeast 368 423 12,700 -4,629 Descending FlightAware UK
Thu 02:45:38 AM 52.6335 3.6122 116° Southeast 356 410 12,300 2,571 Descending FlightAware UK
Thu 02:45:48 AM 52.6330 3.6110 116° Southeast 333 383 13,900 -2,333 Climbing FlightAware ADS-B
Thu 02:46:14 AM 52.6089 3.6932 116° Southeast 356 410 10,900 -2,133 Descending FlightAware UK
Thu 02:46:33 AM 52.6030 3.7100 116° Southeast 329 379 12,300 -1,286 Climbing FlightAware ADS-B
Thu 02:46:56 AM 52.5795 3.7872 116° Southeast 336 387 10,000 -1,350 Descending FlightAware UK
Thu 02:47:13 AM 52.5750 3.7980 116° Southeast 315 362 11,400 737 Climbing FlightAware ADS-B
Thu 02:47:53 AM 52.5500 3.8870 115° Southeast 292 336 10,700 -918 Descending FlightAware ADS-B
Thu 02:48:38 AM 52.5260 3.9660 117° Southeast 277 319 10,100 -1,029 Descending FlightAware ADS-B
Thu 02:49:03 AM 52.5120 4.0200 113° Southeast 272 313 9,500 -1,650 Descending FlightAware ADS-B
Thu 02:49:18 AM 52.5050 4.0510 110° East 276 318 9,000 -1,333 Descending FlightAware ADS-B
Thu 02:49:48 AM 52.4920 4.1070 111° Southeast 270 311 8,500 -3,360 Descending FlightAware ADS-B
Thu 02:50:08 AM 52.4789 4.1660 111° Southeast 1 1 6,200 -1,440 Descending FlightAware UK
Thu 02:50:13 AM 52.4800 4.1560 111° Southeast 267 307 7,900 1,886 Climbing FlightAware ADS-B
Thu 02:50:43 AM 52.4680 4.2070 111° Southeast 263 303 7,300 -1,418 Descending FlightAware ADS-B
Thu 02:51:08 AM 52.4560 4.2570 111° Southeast 261 300 6,600 -1,650 Descending FlightAware ADS-B
Thu 02:51:23 AM 52.4480 4.2900 112° Southeast 264 304 6,200 -1,333 Descending FlightAware ADS-B
Thu 02:51:53 AM 52.4350 4.3400 113° Southeast 260 299 5,600 -1,400 Descending FlightAware ADS-B
Thu 02:52:23 AM 52.4180 4.3960 116° Southeast 256 295 4,800 -1,650 Descending FlightAware ADS-B
Thu 02:52:33 AM 52.4080 4.4070 146° Southeast 248 285 4,500 -1,200 Descending FlightAware ADS-B
Thu 02:52:48 AM 52.3930 4.4120 169° South 245 282 4,300 -1,200 Descending FlightAware ADS-B
Thu 02:53:18 AM 52.3550 4.4030 188° South 244 281 3,600 -1,091 Descending FlightAware ADS-B
Thu 02:53:43 AM 52.3260 4.3950 190° South 232 267 3,300 -450 Descending FlightAware ADS-B
Thu 02:53:58 AM 52.3090 4.3910 188° South 232 267 3,300  Level FlightAware ADS-B
Thu 02:54:33 AM 52.2740 4.3960 175° South 233 268 3,300  Level FlightAware ADS-B
Thu 02:54:53 AM 52.2600 4.4150 140° Southeast 187 215 3,300 -120 Level FlightAware ADS-B
Thu 02:55:23 AM 52.2410 4.4440 137° Southeast 179 206 3,200 -327 Descending FlightAware ADS-B
Thu 02:55:48 AM 52.2260 4.4650 139° Southeast 175 201 3,000 -436 Descending FlightAware ADS-B
Thu 02:56:18 AM 52.2140 4.4990 120° Southeast 177 204 2,800 -200 Descending FlightAware ADS-B
Thu 02:56:48 AM 52.2160 4.5380 85° East 175 201 2,800 -133 Level FlightAware ADS-B
Thu 02:57:03 AM 52.2210 4.5590 69° East 177 204 2,700 -300 Descending FlightAware ADS-B
Thu 02:57:28 AM 52.2320 4.5860 56° Northeast 175 201 2,600 -720 Descending FlightAware ADS-B
Thu 02:57:53 AM 52.2430 4.6160 59° Northeast 181 208 2,100 -1,000 Descending FlightAware ADS-B
Thu 02:58:28 AM 52.2570 4.6520 58° Northeast 166 191 1,600 -900 Descending FlightAware ADS-B
Thu 02:58:53 AM 52.2670 4.6790 59° Northeast 152 175 1,200 -873 Descending FlightAware ADS-B
Thu 02:59:23 AM 52.2770 4.7070 60° Northeast 142 163 800 -764 Descending FlightAware ADS-B
Thu 02:59:48 AM 52.2870 4.7310 56° Northeast 149 171 500 -409 Descending FlightAware ADS-B
Thu 03:00:07 AM 52.2930 4.7470 58° Northeast 148 170 500  Level FlightAware ADS-B
Thu 03:02:00 AM 52.3000 4.7500 125° Southeast  Level FlightAware Approximate
Thu 03:03:00 AM 52.3086 4.7639 125° Southeast  Level Estimated
Thu 03:04:00 AM 52.3086 4.7639 125° Southeast  Level Estimated
Thu 03:05:00 AM 52.3086 4.7639 125° Southeast  Level Estimated
Thu 03:06:00 AM 52.3086 4.7639 125° Southeast  Level Estimated
Thu 03:07:00 AM 52.3086 4.7639 125° Southeast  Level Estimated
Thu 03:08:00 AM 52.3086 4.7639 125° Southeast  Level Estimated
Thu 03:09:00 AM 52.3086 4.7639 125° Southeast  Level Estimated
Thu 03:10:00 AM 52.3086 4.7639 125° Southeast  Level Estimated
Thu 03:11:00 AM 52.3086 4.7639 125° Southeast  Level Estimated
Thu 03:12:00 AM 52.3086 4.7639 125° Southeast  Level Estimated

Login

Don't have an account? Register now (free) for customized features, flight alerts, and more!